createdAt,value
2023-05-12T00:00:25.644Z,72.5710
2023-05-12T00:01:26.699Z,72.6065
2023-05-12T00:02:28.432Z,72.5560
2023-05-12T00:03:30.589Z,72.5800
2023-05-12T00:04:31.727Z,72.6350
2023-05-12T00:05:33.269Z,72.6257
2023-05-12T00:06:34.935Z,72.7382
2023-05-12T00:07:36.614Z,72.6952
2023-05-12T00:08:38.237Z,72.6729
2023-05-12T00:09:39.888Z,72.6077
2023-05-12T00:10:41.494Z,72.4466
2023-05-12T00:11:43.163Z,72.4917
2023-05-12T00:12:44.790Z,72.5857
2023-05-12T00:13:46.684Z,72.5587
2023-05-12T00:14:48.238Z,72.5643
2023-05-12T00:15:49.873Z,72.5494
2023-05-12T00:16:51.734Z,72.6655
2023-05-12T00:17:53.274Z,72.5903
2023-05-12T00:18:54.855Z,72.5834
2023-05-12T00:19:56.915Z,72.5338
2023-05-12T00:20:58.983Z,72.6119
2023-05-12T00:21:59.748Z,72.5760
2023-05-12T00:23:01.343Z,72.7405
2023-05-12T00:24:03.094Z,72.6635
2023-05-12T00:25:04.702Z,72.5236
2023-05-12T00:26:06.311Z,72.5425
2023-05-12T00:27:07.905Z,72.4892
2023-05-12T00:28:09.698Z,72.4929
2023-05-12T00:29:11.318Z,72.4935
2023-05-12T00:30:12.939Z,72.4599
2023-05-12T00:31:14.551Z,72.3731
2023-05-12T00:32:16.199Z,72.3376
2023-05-12T00:33:17.835Z,72.4511
2023-05-12T00:34:19.593Z,72.4559
2023-05-12T00:35:21.086Z,72.5463
2023-05-12T00:36:22.806Z,72.6151
2023-05-12T00:37:24.406Z,72.6868
2023-05-12T00:38:26.057Z,72.7091
2023-05-12T00:39:27.796Z,72.6351
2023-05-12T00:40:29.398Z,72.6946
2023-05-12T00:41:30.999Z,72.5525
2023-05-12T00:42:32.725Z,72.5487
2023-05-12T00:43:34.329Z,72.5300
2023-05-12T00:44:36.000Z,72.4649
2023-05-12T00:45:37.718Z,72.5623
2023-05-12T00:46:39.240Z,72.5835
2023-05-12T00:47:40.917Z,72.5305
2023-05-12T00:48:42.570Z,72.6120
2023-05-12T00:49:44.284Z,72.8598
2023-05-12T00:50:45.901Z,72.8924
2023-05-12T00:51:47.513Z,72.9713
2023-05-12T00:52:49.189Z,73.0287
2023-05-12T00:53:50.933Z,73.0495
2023-05-12T00:54:52.606Z,72.9512
2023-05-12T00:55:54.161Z,72.8823
2023-05-12T00:56:55.930Z,72.7899
2023-05-12T00:57:57.482Z,72.8126
2023-05-12T00:58:59.133Z,72.7647
2023-05-12T01:00:00.862Z,72.6897
2023-05-12T01:01:02.468Z,72.8010
2023-05-12T01:02:04.061Z,72.9418
2023-05-12T01:03:05.923Z,72.9728
2023-05-12T01:04:07.372Z,73.0618
2023-05-12T01:05:09.088Z,72.9882
2023-05-12T01:06:10.641Z,72.8801
2023-05-12T01:07:12.336Z,72.7736
2023-05-12T01:08:13.925Z,72.7090
2023-05-12T01:09:15.622Z,72.7594
2023-05-12T01:10:17.373Z,72.7550
2023-05-12T01:11:18.897Z,72.9176
2023-05-12T01:12:20.505Z,73.0450
2023-05-12T01:13:22.218Z,73.0678
2023-05-12T01:14:23.938Z,73.1213
2023-05-12T01:15:25.645Z,73.0734
2023-05-12T01:16:27.123Z,72.9903
2023-05-12T01:17:28.897Z,73.0306
2023-05-12T01:18:30.566Z,72.9880
2023-05-12T01:19:32.172Z,72.9097
2023-05-12T01:20:33.730Z,72.9407
2023-05-12T01:21:35.482Z,72.9850
2023-05-12T01:22:37.909Z,72.9313
2023-05-12T01:23:38.712Z,72.8984
2023-05-12T01:24:40.399Z,72.9546
2023-05-12T01:25:42.049Z,73.1108
2023-05-12T01:26:43.675Z,73.1353
2023-05-12T01:27:45.396Z,73.1638
2023-05-12T01:28:46.960Z,73.1574
2023-05-12T01:29:48.665Z,73.1333
2023-05-12T01:30:50.366Z,73.0189
2023-05-12T01:31:51.902Z,73.0715
2023-05-12T01:32:53.571Z,73.1374
2023-05-12T01:33:55.189Z,73.1769
2023-05-12T01:34:56.854Z,73.2819
2023-05-12T01:35:58.562Z,73.2334
2023-05-12T01:37:00.164Z,73.1654
2023-05-12T01:38:02.138Z,73.1506
2023-05-12T01:39:03.455Z,73.0199
2023-05-12T01:40:05.071Z,72.9658
2023-05-12T01:41:06.788Z,72.9863
2023-05-12T01:42:08.444Z,72.9752
2023-05-12T01:43:10.070Z,73.0714
2023-05-12T01:44:11.699Z,73.1175
2023-05-12T01:45:13.358Z,73.1471
2023-05-12T01:46:15.503Z,73.0836
2023-05-12T01:47:16.713Z,73.0175
2023-05-12T01:48:18.272Z,72.9903
2023-05-12T01:49:19.950Z,72.9070
2023-05-12T01:50:21.800Z,72.9548
2023-05-12T01:51:23.346Z,72.9414
2023-05-12T01:52:24.907Z,72.9304
2023-05-12T01:53:26.615Z,72.9699
2023-05-12T01:54:28.184Z,73.0520
2023-05-12T01:55:29.846Z,73.1012
2023-05-12T01:56:32.480Z,73.0100
2023-05-12T01:57:33.130Z,72.8869
2023-05-12T01:58:34.804Z,72.9833
2023-05-12T01:59:36.398Z,73.1407
2023-05-12T02:00:38.172Z,73.1439
2023-05-12T02:01:39.750Z,73.0917
2023-05-12T02:02:43.071Z,73.1196
2023-05-12T02:03:43.166Z,73.1025
2023-05-12T02:04:44.750Z,73.0666
2023-05-12T02:05:46.275Z,73.1584
2023-05-12T02:06:47.996Z,73.1858
2023-05-12T02:07:49.627Z,73.1273
2023-05-12T02:08:51.967Z,73.1195
2023-05-12T02:09:52.859Z,73.0675
2023-05-12T02:10:54.553Z,73.0511
2023-05-12T02:11:56.282Z,73.0468
2023-05-12T02:12:57.912Z,73.0735
2023-05-12T02:13:59.462Z,73.0702
2023-05-12T02:15:01.231Z,73.0699
2023-05-12T02:16:02.898Z,73.0388
2023-05-12T02:17:04.548Z,73.0160
2023-05-12T02:18:06.175Z,72.9780
2023-05-12T02:19:07.805Z,72.9714
2023-05-12T02:20:09.397Z,72.9971
2023-05-12T02:21:11.037Z,73.0148
2023-05-12T02:22:12.689Z,72.9754
2023-05-12T02:23:14.347Z,72.9525
2023-05-12T02:24:15.918Z,72.9334
2023-05-12T02:25:17.606Z,72.8863
2023-05-12T02:26:19.194Z,72.9306
2023-05-12T02:27:20.938Z,73.0707
2023-05-12T02:28:22.567Z,73.2169
2023-05-12T02:29:24.239Z,73.4181
2023-05-12T02:30:25.823Z,73.4042
2023-05-12T02:31:27.605Z,73.3003
2023-05-12T02:32:29.505Z,73.1647
2023-05-12T02:33:30.819Z,73.1479
2023-05-12T02:34:32.475Z,73.0272
2023-05-12T02:35:34.096Z,73.0311
2023-05-12T02:36:35.727Z,73.1729
2023-05-12T02:37:37.505Z,73.2033
2023-05-12T02:38:39.001Z,73.2018
2023-05-12T02:39:40.680Z,73.1966
2023-05-12T02:40:42.324Z,73.2585
2023-05-12T02:41:44.955Z,73.3073
2023-05-12T02:42:45.588Z,73.3697
2023-05-12T02:43:47.206Z,73.3921
2023-05-12T02:44:48.855Z,73.4904
2023-05-12T02:45:50.642Z,73.5105
2023-05-12T02:46:52.120Z,73.5470
2023-05-12T02:47:53.926Z,73.4870
2023-05-12T02:48:55.479Z,73.4006
2023-05-12T02:49:57.104Z,73.3563
2023-05-12T02:50:58.720Z,73.3501
2023-05-12T02:52:00.418Z,73.3498
2023-05-12T02:53:02.085Z,73.7003
2023-05-12T02:54:03.674Z,73.1239
2023-05-12T02:55:05.359Z,72.2373
2023-05-12T02:56:06.992Z,71.1658
2023-05-12T02:57:08.639Z,69.2271
2023-05-12T02:58:10.307Z,67.9125
2023-05-12T02:59:11.945Z,67.4690
2023-05-12T03:00:13.580Z,67.4804
2023-05-12T03:01:15.212Z,67.7952
2023-05-12T03:02:16.892Z,67.9367
2023-05-12T03:03:18.553Z,67.6981
2023-05-12T03:04:20.142Z,67.2691
2023-05-12T03:05:21.803Z,67.3073
2023-05-12T03:06:23.460Z,67.2925
2023-05-12T03:07:25.146Z,67.6572
2023-05-12T03:08:26.818Z,67.9989
2023-05-12T03:09:28.370Z,67.9644
2023-05-12T03:10:30.051Z,67.6680
2023-05-12T03:11:31.652Z,67.3812
2023-05-12T03:12:33.288Z,67.2006
2023-05-12T03:13:35.440Z,67.1492
2023-05-12T03:14:36.657Z,67.2988
2023-05-12T03:15:38.237Z,67.5092
2023-05-12T03:16:40.553Z,67.6298
2023-05-12T03:17:41.581Z,67.7212
2023-05-12T03:18:43.229Z,67.6927
2023-05-12T03:19:44.802Z,67.4585
2023-05-12T03:20:46.518Z,67.2514
2023-05-12T03:21:48.084Z,67.1314
2023-05-12T03:22:49.770Z,67.2989
2023-05-12T03:23:51.452Z,67.3677
2023-05-12T03:24:53.072Z,67.4346
2023-05-12T03:25:54.668Z,67.6280
2023-05-12T03:26:56.320Z,67.4525
2023-05-12T03:27:57.972Z,67.2295
2023-05-12T03:28:59.674Z,67.0766
2023-05-12T03:30:01.252Z,66.8930
2023-05-12T03:31:03.117Z,66.9446
2023-05-12T03:32:04.585Z,67.0466
2023-05-12T03:33:06.253Z,67.0259
2023-05-12T03:34:07.915Z,67.1619
2023-05-12T03:35:09.633Z,67.2933
2023-05-12T03:36:11.139Z,67.2477
2023-05-12T03:37:12.859Z,67.1619
2023-05-12T03:38:14.440Z,67.0938
2023-05-12T03:39:16.191Z,67.2125
2023-05-12T03:40:18.975Z,67.2424
2023-05-12T03:41:19.407Z,67.3322
2023-05-12T03:42:21.048Z,67.3302
2023-05-12T03:43:22.761Z,67.2794
2023-05-12T03:44:24.363Z,67.2110
2023-05-12T03:45:26.062Z,67.1589
2023-05-12T03:46:27.661Z,67.0574
2023-05-12T03:47:29.463Z,66.8897
2023-05-12T03:48:30.971Z,66.9493
2023-05-12T03:49:32.567Z,66.9943
2023-05-12T03:50:34.258Z,66.8226
2023-05-12T03:51:35.978Z,66.8438
2023-05-12T03:52:37.513Z,66.8569
2023-05-12T03:53:39.188Z,66.8959
2023-05-12T03:54:40.809Z,67.0566
2023-05-12T03:55:42.965Z,67.2301
2023-05-12T03:56:44.133Z,67.3494
2023-05-12T03:57:45.744Z,67.3505
2023-05-12T03:58:47.436Z,67.2812
2023-05-12T03:59:49.102Z,67.1991
2023-05-12T04:00:50.732Z,67.4341
2023-05-12T04:01:52.392Z,67.4260
2023-05-12T04:02:54.038Z,67.2584
2023-05-12T04:03:55.729Z,67.1113
2023-05-12T04:04:57.281Z,67.1712
2023-05-12T04:05:58.967Z,67.4528
2023-05-12T04:07:00.650Z,67.6010
2023-05-12T04:08:02.228Z,67.3255
2023-05-12T04:09:03.896Z,67.2807
2023-05-12T04:10:05.540Z,67.4637
2023-05-12T04:11:07.481Z,67.6012
2023-05-12T04:12:08.793Z,67.6386
2023-05-12T04:13:10.460Z,67.6177
2023-05-12T04:14:12.083Z,67.6888
2023-05-12T04:15:13.799Z,67.6312
2023-05-12T04:16:15.524Z,67.6950
2023-05-12T04:17:17.041Z,67.7271
2023-05-12T04:18:18.697Z,67.5806
2023-05-12T04:19:20.329Z,67.4356
2023-05-12T04:20:22.121Z,67.2769
2023-05-12T04:21:24.494Z,67.0486
2023-05-12T04:22:25.817Z,66.8540
2023-05-12T04:23:26.945Z,67.0714
2023-05-12T04:24:28.648Z,67.2314
2023-05-12T04:25:30.234Z,67.3275
2023-05-12T04:26:31.872Z,67.3463
2023-05-12T04:27:33.526Z,67.1131
2023-05-12T04:28:35.176Z,67.0988
2023-05-12T04:29:36.825Z,67.1935
2023-05-12T04:30:38.470Z,67.3512
2023-05-12T04:31:40.177Z,67.4654
2023-05-12T04:32:41.789Z,67.5027
2023-05-12T04:33:43.464Z,67.5119
2023-05-12T04:34:45.951Z,67.5931
2023-05-12T04:35:47.453Z,67.4435
2023-05-12T04:36:48.389Z,67.3521
2023-05-12T04:37:50.973Z,67.3942
2023-05-12T04:38:51.699Z,67.6549
2023-05-12T04:39:53.280Z,67.0785
2023-05-12T04:40:54.914Z,66.9574
2023-05-12T04:41:56.666Z,67.0623
2023-05-12T04:42:58.232Z,66.9719
2023-05-12T04:44:00.380Z,66.6242
2023-05-12T04:45:01.505Z,66.3264
2023-05-12T04:46:03.222Z,66.2766
2023-05-12T04:47:04.875Z,66.4578
2023-05-12T04:48:07.501Z,66.6370
2023-05-12T04:49:09.095Z,66.8027
2023-05-12T04:50:09.950Z,66.8523
2023-05-12T04:51:11.604Z,66.1742
2023-05-12T04:52:13.228Z,65.9939
2023-05-12T04:53:14.828Z,65.9107
2023-05-12T04:54:16.495Z,65.2503
2023-05-12T04:55:18.429Z,64.4320
2023-05-12T04:56:19.883Z,63.3401
2023-05-12T04:57:21.653Z,62.2685
2023-05-12T04:58:23.141Z,61.0507
2023-05-12T04:59:24.731Z,60.4824
2023-05-12T05:00:26.516Z,60.3163
2023-05-12T05:01:28.106Z,59.8552
2023-05-12T05:02:30.270Z,59.2415
2023-05-12T05:03:31.492Z,58.7800
2023-05-12T05:04:33.047Z,58.3159
2023-05-12T05:05:34.658Z,57.8764
2023-05-12T05:06:36.306Z,57.9207
2023-05-12T05:07:38.947Z,58.3362
2023-05-12T05:08:40.443Z,58.2813
2023-05-12T05:09:41.291Z,57.5354
2023-05-12T05:10:42.868Z,56.9424
2023-05-12T05:11:44.586Z,56.6467
2023-05-12T05:12:46.171Z,57.2429
2023-05-12T05:13:47.841Z,57.3442
2023-05-12T05:14:50.425Z,56.7990
2023-05-12T05:15:51.295Z,56.3646
2023-05-12T05:16:52.750Z,55.8278
2023-05-12T05:17:54.647Z,56.0764
2023-05-12T05:18:57.614Z,56.8324
2023-05-12T05:19:59.226Z,56.9058
2023-05-12T05:20:59.522Z,56.5098
2023-05-12T05:22:01.021Z,56.2546
2023-05-12T05:23:02.724Z,55.9304
2023-05-12T05:24:04.346Z,56.1370
2023-05-12T05:25:05.930Z,56.9038
2023-05-12T05:26:07.667Z,56.7735
2023-05-12T05:27:09.230Z,56.3377
2023-05-12T05:28:10.966Z,55.7230
2023-05-12T05:29:12.548Z,55.8312
2023-05-12T05:30:14.256Z,56.1398
2023-05-12T05:31:15.866Z,56.2789
2023-05-12T05:32:17.499Z,56.0890
2023-05-12T05:33:19.250Z,55.8909
2023-05-12T05:34:20.812Z,55.4515
2023-05-12T05:35:22.635Z,55.7713
2023-05-12T05:36:24.046Z,56.7092
2023-05-12T05:37:25.717Z,56.4923
2023-05-12T05:38:28.225Z,55.7488
2023-05-12T05:39:28.958Z,55.4050
2023-05-12T05:40:38.536Z,55.5036
2023-05-12T05:41:32.471Z,55.8786
2023-05-12T05:42:34.058Z,56.2669
2023-05-12T05:43:35.623Z,55.8812
2023-05-12T05:44:37.182Z,55.5271
2023-05-12T05:45:38.888Z,55.2821
2023-05-12T05:46:40.547Z,55.7009
2023-05-12T05:47:42.220Z,56.0738
2023-05-12T05:48:43.859Z,56.3893
2023-05-12T05:49:45.468Z,56.0563
2023-05-12T05:50:47.089Z,55.7472
2023-05-12T05:51:48.751Z,55.7816
2023-05-12T05:52:50.404Z,55.9893
2023-05-12T05:53:52.107Z,56.2616
2023-05-12T05:54:53.714Z,55.9198
2023-05-12T05:55:55.694Z,55.4563
2023-05-12T05:56:57.264Z,55.3207
2023-05-12T05:57:58.710Z,55.5304
2023-05-12T05:59:00.272Z,55.7857
2023-05-12T06:00:01.999Z,55.7935
2023-05-12T06:01:04.091Z,55.4872
2023-05-12T06:02:05.294Z,55.2014
2023-05-12T06:03:06.991Z,55.3913
2023-05-12T06:04:09.544Z,55.7235
2023-05-12T06:05:10.146Z,56.3392
2023-05-12T06:06:12.957Z,56.1846
2023-05-12T06:07:13.452Z,55.7595
2023-05-12T06:08:15.035Z,55.4236
2023-05-12T06:09:16.734Z,55.6119
2023-05-12T06:10:18.622Z,55.8280
2023-05-12T06:11:19.983Z,55.9852
2023-05-12T06:12:21.570Z,56.3749
2023-05-12T06:13:23.245Z,55.8861
2023-05-12T06:14:25.100Z,55.4892
2023-05-12T06:15:26.584Z,55.6833
2023-05-12T06:16:28.240Z,56.0000
2023-05-12T06:17:32.066Z,56.3076
2023-05-12T06:18:31.490Z,56.4840
2023-05-12T06:19:33.722Z,55.9567
2023-05-12T06:20:34.769Z,55.5987
2023-05-12T06:21:36.428Z,55.7814
2023-05-12T06:22:38.056Z,55.8461
2023-05-12T06:23:39.774Z,56.2628
2023-05-12T06:24:41.401Z,56.2716
2023-05-12T06:25:43.029Z,55.5887
2023-05-12T06:26:44.675Z,55.4882
2023-05-12T06:27:46.316Z,55.6870
2023-05-12T06:28:47.984Z,56.0401
2023-05-12T06:29:49.604Z,56.8659
2023-05-12T06:30:51.220Z,57.2837
2023-05-12T06:31:52.902Z,57.2275
2023-05-12T06:32:54.519Z,57.4134
2023-05-12T06:33:56.159Z,58.0279
2023-05-12T06:34:57.846Z,58.9967
2023-05-12T06:35:59.543Z,59.4119
2023-05-12T06:37:01.074Z,59.9514
2023-05-12T06:38:02.805Z,59.6058
2023-05-12T06:39:04.418Z,59.3332
2023-05-12T06:40:06.072Z,59.4545
2023-05-12T06:41:08.669Z,59.9196
2023-05-12T06:42:09.385Z,60.6043
2023-05-12T06:43:10.978Z,61.3732
2023-05-12T06:44:12.643Z,61.0257
2023-05-12T06:45:14.287Z,60.4545
2023-05-12T06:46:16.030Z,60.3423
2023-05-12T06:47:17.544Z,61.0180
2023-05-12T06:48:19.172Z,61.6622
2023-05-12T06:49:20.796Z,62.4811
2023-05-12T06:50:22.572Z,61.9949
2023-05-12T06:51:24.135Z,61.8499
2023-05-12T06:52:26.490Z,60.9548
2023-05-12T06:53:27.371Z,60.9521
2023-05-12T06:54:29.144Z,61.8082
2023-05-12T06:55:30.717Z,62.5966
2023-05-12T06:56:32.453Z,61.9744
2023-05-12T06:57:34.047Z,61.1166
2023-05-12T06:58:35.619Z,60.9325
2023-05-12T06:59:37.304Z,61.1456
2023-05-12T07:00:39.669Z,62.0385
2023-05-12T07:01:40.691Z,63.1417
2023-05-12T07:02:42.280Z,62.1339
2023-05-12T07:03:43.855Z,61.2577
2023-05-12T07:04:45.625Z,60.9627
2023-05-12T07:05:47.189Z,61.3737
2023-05-12T07:06:48.912Z,62.2996
2023-05-12T07:07:50.576Z,63.2004
2023-05-12T07:08:52.157Z,62.6359
2023-05-12T07:09:53.738Z,61.6334
2023-05-12T07:10:55.467Z,61.3382
2023-05-12T07:11:57.126Z,61.7523
2023-05-12T07:12:58.722Z,62.5622
2023-05-12T07:14:00.377Z,63.5300
2023-05-12T07:15:02.017Z,63.0030
2023-05-12T07:16:03.626Z,63.4516
2023-05-12T07:17:05.242Z,62.3906
2023-05-12T07:18:06.991Z,62.1363
2023-05-12T07:19:08.672Z,62.3346
2023-05-12T07:20:10.172Z,62.9301
2023-05-12T07:21:11.867Z,62.7936
2023-05-12T07:22:16.179Z,62.9241
2023-05-12T07:23:15.049Z,62.1708
2023-05-12T07:24:16.708Z,62.0330
2023-05-12T07:25:19.150Z,63.0376
2023-05-12T07:26:21.648Z,63.8651
2023-05-12T07:27:21.624Z,62.7034
2023-05-12T07:28:23.276Z,62.6762
2023-05-12T07:29:24.914Z,61.6912
2023-05-12T07:30:26.660Z,61.6685
2023-05-12T07:31:29.197Z,62.2703
2023-05-12T07:32:29.920Z,62.7055
2023-05-12T07:33:32.683Z,61.5036
2023-05-12T07:34:33.208Z,61.4056
2023-05-12T07:35:34.949Z,60.6358
2023-05-12T07:36:36.574Z,60.9194
2023-05-12T07:37:38.356Z,61.2559
2023-05-12T07:38:39.905Z,61.9636
2023-05-12T07:39:41.554Z,61.1154
2023-05-12T07:40:43.140Z,60.5824
2023-05-12T07:41:44.876Z,59.8987
2023-05-12T07:42:46.429Z,60.2286
2023-05-12T07:43:48.276Z,61.2606
2023-05-12T07:44:49.706Z,62.3675
2023-05-12T07:45:51.441Z,61.6515
2023-05-12T07:46:54.100Z,61.8801
2023-05-12T07:47:55.557Z,60.7877
2023-05-12T07:48:56.266Z,61.2224
2023-05-12T07:49:58.693Z,62.1953
2023-05-12T07:50:59.543Z,62.7576
2023-05-12T07:52:01.270Z,62.0576
2023-05-12T07:53:02.856Z,62.9271
2023-05-12T07:54:04.540Z,61.6486
2023-05-12T07:55:06.158Z,61.6509
2023-05-12T07:56:07.861Z,62.2005
2023-05-12T07:57:09.478Z,62.9785
2023-05-12T07:58:11.059Z,62.0559
2023-05-12T07:59:12.754Z,62.4477
2023-05-12T08:00:14.413Z,61.0846
2023-05-12T08:01:16.109Z,61.1487
2023-05-12T08:02:18.202Z,61.8074
2023-05-12T08:03:19.403Z,62.3890
2023-05-12T08:04:21.027Z,61.4609
2023-05-12T08:05:22.701Z,61.6760
2023-05-12T08:06:25.026Z,60.5618
2023-05-12T08:07:26.195Z,60.7551
2023-05-12T08:08:27.516Z,61.5502
2023-05-12T08:09:29.221Z,62.4143
2023-05-12T08:10:30.843Z,61.4727
2023-05-12T08:11:32.475Z,61.2244
2023-05-12T08:12:34.131Z,60.2479
2023-05-12T08:13:35.733Z,60.9563
2023-05-12T08:14:37.335Z,62.2137
2023-05-12T08:15:39.045Z,62.8715
2023-05-12T08:16:40.739Z,62.1305
2023-05-12T08:17:42.359Z,61.5758
2023-05-12T08:18:43.986Z,60.8248
2023-05-12T08:19:45.571Z,61.1171
2023-05-12T08:20:47.249Z,61.6766
2023-05-12T08:21:48.878Z,62.8161
2023-05-12T08:22:52.173Z,62.8160
2023-05-12T08:23:53.209Z,61.5399
2023-05-12T08:24:54.044Z,61.0201
2023-05-12T08:25:55.600Z,60.6753
2023-05-12T08:26:57.359Z,61.4774
2023-05-12T08:27:58.976Z,62.9150
2023-05-12T08:29:00.599Z,62.5446
2023-05-12T08:30:02.223Z,60.7162
2023-05-12T08:31:05.127Z,59.6880
2023-05-12T08:32:05.421Z,59.9913
2023-05-12T08:33:07.213Z,60.6133
2023-05-12T08:34:10.906Z,61.3268
2023-05-12T08:35:10.391Z,61.9316
2023-05-12T08:36:11.987Z,61.3544
2023-05-12T08:37:13.783Z,60.0278
2023-05-12T08:38:15.662Z,59.2898
2023-05-12T08:39:16.957Z,59.7409
2023-05-12T08:40:18.571Z,60.4875
2023-05-12T08:41:20.257Z,61.1170
2023-05-12T08:42:21.960Z,61.0505
2023-05-12T08:43:23.624Z,59.8446
2023-05-12T08:44:25.172Z,59.3725
2023-05-12T08:45:26.913Z,59.5529
2023-05-12T08:46:28.509Z,60.0938
2023-05-12T08:47:30.145Z,60.7502
2023-05-12T08:48:31.788Z,61.8432
2023-05-12T08:49:33.495Z,60.0969
2023-05-12T08:50:35.128Z,59.0587
2023-05-12T08:51:36.721Z,59.2582
2023-05-12T08:52:38.363Z,59.7740
2023-05-12T08:53:40.057Z,60.4851
2023-05-12T08:54:52.414Z,61.2561
2023-05-12T08:55:48.224Z,60.2904
2023-05-12T08:57:46.627Z,59.0253
2023-05-12T08:58:48.222Z,59.7616
2023-05-12T08:59:49.969Z,60.6418
2023-05-12T09:00:51.604Z,61.6489
2023-05-12T09:01:53.363Z,60.1375
2023-05-12T09:02:55.118Z,60.6620
2023-05-12T09:03:56.598Z,59.4627
2023-05-12T09:04:58.192Z,59.8802
2023-05-12T09:05:59.836Z,60.8594
2023-05-12T09:07:01.459Z,61.5470
2023-05-12T09:08:03.112Z,60.5141
2023-05-12T09:09:04.763Z,59.9754
2023-05-12T09:10:06.419Z,59.0418
2023-05-12T09:11:08.086Z,59.8159
2023-05-12T09:12:10.556Z,60.7519
2023-05-12T09:13:11.343Z,61.8058
2023-05-12T09:14:13.049Z,61.4375
2023-05-12T09:15:14.729Z,60.3149
2023-05-12T09:16:16.334Z,59.3751
2023-05-12T09:17:17.992Z,59.4541
2023-05-12T09:18:19.623Z,60.2228
2023-05-12T09:19:21.186Z,61.3147
2023-05-12T09:20:30.818Z,60.7432
2023-05-12T09:21:24.438Z,59.3221
2023-05-12T09:22:26.084Z,58.7867
2023-05-12T09:23:27.742Z,58.8865
2023-05-12T09:24:29.387Z,59.5549
2023-05-12T09:25:31.078Z,60.3240
2023-05-12T09:26:32.704Z,59.9827
2023-05-12T09:27:34.389Z,59.0873
2023-05-12T09:28:36.020Z,58.1353
2023-05-12T09:29:45.310Z,58.1970
2023-05-12T09:30:39.317Z,58.8440
2023-05-12T09:31:40.959Z,59.4742
2023-05-12T09:32:42.548Z,59.8453
2023-05-12T09:33:44.217Z,58.9803
2023-05-12T09:34:46.595Z,57.5470
2023-05-12T09:35:47.543Z,57.4890
2023-05-12T09:36:49.156Z,58.2550
2023-05-12T09:37:51.846Z,58.8564
2023-05-12T09:38:52.595Z,58.8945
2023-05-12T09:39:54.192Z,58.2420
2023-05-12T09:40:55.873Z,57.2551
2023-05-12T09:41:57.552Z,57.4451
2023-05-12T09:42:59.144Z,58.7158
2023-05-12T09:44:00.894Z,59.5141
2023-05-12T09:45:02.478Z,59.0871
2023-05-12T09:46:04.139Z,57.8240
2023-05-12T09:47:05.800Z,57.1242
2023-05-12T09:48:07.442Z,57.7620
2023-05-12T09:49:09.111Z,58.1750
2023-05-12T09:50:10.741Z,59.3756
2023-05-12T09:51:12.376Z,59.0995
2023-05-12T09:52:14.036Z,57.8200
2023-05-12T09:53:15.709Z,57.6438
2023-05-12T09:54:18.281Z,58.2897
2023-05-12T09:55:19.068Z,59.1232
2023-05-12T09:56:20.645Z,58.3941
2023-05-12T09:57:22.248Z,58.2454
2023-05-12T09:58:23.891Z,57.1705
2023-05-12T09:59:25.576Z,57.0633
2023-05-12T10:00:41.293Z,57.5655
2023-05-12T10:01:28.873Z,58.0781
2023-05-12T10:02:30.725Z,59.4390
2023-05-12T10:03:32.099Z,58.8028
2023-05-12T10:04:33.802Z,56.9565
2023-05-12T10:05:35.400Z,57.0924
2023-05-12T10:06:37.748Z,57.8195
2023-05-12T10:07:38.802Z,59.1752
2023-05-12T10:08:40.509Z,59.1093
2023-05-12T10:09:41.999Z,58.1707
2023-05-12T10:10:43.612Z,57.0649
2023-05-12T10:11:45.348Z,57.2206
2023-05-12T10:12:46.957Z,58.0666
2023-05-12T10:13:48.597Z,59.2751
2023-05-12T10:14:50.207Z,59.9728
2023-05-12T10:15:51.954Z,58.6196
2023-05-12T10:16:54.268Z,57.3843
2023-05-12T10:17:55.264Z,57.4497
2023-05-12T10:18:56.898Z,58.1853
2023-05-12T10:19:58.449Z,59.3167
2023-05-12T10:21:00.240Z,58.6286
2023-05-12T10:22:02.346Z,57.1336
2023-05-12T10:23:03.419Z,56.8463
2023-05-12T10:24:05.053Z,57.3313
2023-05-12T10:25:06.673Z,58.2833
2023-05-12T10:26:08.337Z,59.3315
2023-05-12T10:27:10.752Z,58.9594
2023-05-12T10:28:11.784Z,57.3514
2023-05-12T10:29:13.296Z,56.8143
2023-05-12T10:30:14.944Z,57.1455
2023-05-12T10:31:16.712Z,58.3101
2023-05-12T10:32:19.292Z,58.9068
2023-05-12T10:33:20.358Z,57.7165
2023-05-12T10:34:21.662Z,56.2809
2023-05-12T10:35:23.171Z,56.0537
2023-05-12T10:36:24.844Z,56.7412
2023-05-12T10:37:27.216Z,57.8456
2023-05-12T10:38:28.158Z,58.1289
2023-05-12T10:39:29.718Z,56.8849
2023-05-12T10:40:32.381Z,56.0028
2023-05-12T10:41:33.049Z,56.3311
2023-05-12T10:42:35.275Z,57.2995
2023-05-12T10:43:36.372Z,58.5192
2023-05-12T10:44:38.022Z,58.8934
2023-05-12T10:45:39.663Z,56.9528
2023-05-12T10:46:41.317Z,56.4965
2023-05-12T10:47:43.059Z,56.9645
2023-05-12T10:48:44.597Z,57.9055
2023-05-12T10:49:46.264Z,58.6921
2023-05-12T10:50:47.858Z,58.6116
2023-05-12T10:51:49.524Z,57.0128
2023-05-12T10:52:51.172Z,56.6052
2023-05-12T10:53:54.860Z,57.1620
2023-05-12T10:54:54.509Z,58.2471
2023-05-12T10:55:56.288Z,58.9105
2023-05-12T10:56:57.964Z,58.5259
2023-05-12T10:58:00.154Z,57.0044
2023-05-12T10:59:01.468Z,56.7061
2023-05-12T11:00:03.835Z,57.0870
2023-05-12T11:01:05.055Z,57.7923
2023-05-12T11:02:06.975Z,58.9202
2023-05-12T11:03:10.441Z,57.9036
2023-05-12T11:04:09.410Z,56.3965
2023-05-12T11:05:11.223Z,56.2961
2023-05-12T11:06:12.806Z,56.7545
2023-05-12T11:07:14.707Z,57.7848
2023-05-12T11:08:16.061Z,59.0786
2023-05-12T11:09:18.002Z,57.5728
2023-05-12T11:10:19.706Z,56.1491
2023-05-12T11:11:20.870Z,56.2813
2023-05-12T11:12:22.583Z,56.6206
2023-05-12T11:13:24.192Z,56.8064
2023-05-12T11:14:25.819Z,57.4025
2023-05-12T11:15:27.491Z,55.9697
2023-05-12T11:16:29.155Z,55.3360
2023-05-12T11:17:30.784Z,55.5083
2023-05-12T11:18:32.442Z,56.2946
2023-05-12T11:19:34.074Z,57.4429
2023-05-12T11:20:35.628Z,57.5495
2023-05-12T11:21:37.371Z,55.5765
2023-05-12T11:22:38.979Z,55.2387
2023-05-12T11:23:40.704Z,55.4020
2023-05-12T11:24:42.298Z,56.0028
2023-05-12T11:25:44.451Z,57.3209
2023-05-12T11:26:45.620Z,56.9324
2023-05-12T11:27:47.598Z,55.2943
2023-05-12T11:28:48.913Z,55.1415
2023-05-12T11:29:52.368Z,55.5842
2023-05-12T11:30:54.699Z,56.7432
2023-05-12T11:31:53.876Z,57.7461
2023-05-12T11:32:55.429Z,56.4328
2023-05-12T11:34:10.846Z,55.3226
2023-05-12T11:34:58.801Z,55.2201
2023-05-12T11:36:00.464Z,55.5186
2023-05-12T11:37:02.067Z,56.1994
2023-05-12T11:38:03.742Z,55.3427
2023-05-12T11:39:05.387Z,54.5902
2023-05-12T11:40:07.090Z,54.3975
2023-05-12T11:41:08.620Z,55.1266
2023-05-12T11:42:13.433Z,55.5664
2023-05-12T11:43:12.047Z,56.5443
2023-05-12T11:44:13.663Z,57.3919
2023-05-12T11:45:15.254Z,55.6582
2023-05-12T11:46:17.011Z,55.1108
2023-05-12T11:47:18.588Z,55.8739
2023-05-12T11:48:20.339Z,56.6201
2023-05-12T11:49:22.293Z,57.1153
2023-05-12T11:50:23.568Z,58.1325
2023-05-12T11:51:25.120Z,56.3667
2023-05-12T11:52:26.806Z,56.3330
2023-05-12T11:53:28.499Z,56.9081
2023-05-12T11:54:30.148Z,57.8631
2023-05-12T11:55:31.720Z,59.0083
2023-05-12T11:56:33.429Z,59.3725
2023-05-12T11:57:35.756Z,57.3618
2023-05-12T11:58:36.683Z,57.6883
2023-05-12T11:59:38.797Z,58.1897
2023-05-12T12:00:40.052Z,59.0725
2023-05-12T12:01:41.609Z,60.0352
2023-05-12T12:02:43.471Z,58.6980
2023-05-12T12:03:45.037Z,57.2801
2023-05-12T12:04:46.641Z,57.7821
2023-05-12T12:05:48.194Z,58.3882
2023-05-12T12:06:49.893Z,59.2858
2023-05-12T12:07:51.491Z,60.1582
2023-05-12T12:08:53.130Z,57.9866
2023-05-12T12:09:54.821Z,56.9123
2023-05-12T12:10:57.273Z,57.4878
2023-05-12T12:11:58.104Z,58.4689
2023-05-12T12:13:00.289Z,59.3431
2023-05-12T12:14:01.416Z,59.3751
2023-05-12T12:15:04.018Z,57.0759
2023-05-12T12:16:05.635Z,56.8787
2023-05-12T12:17:06.338Z,57.3100
2023-05-12T12:18:08.099Z,57.9429
2023-05-12T12:19:09.813Z,59.3415
2023-05-12T12:20:11.384Z,58.8104
2023-05-12T12:21:12.953Z,56.4204
2023-05-12T12:22:14.581Z,56.7348
2023-05-12T12:23:16.169Z,57.2660
2023-05-12T12:24:18.772Z,58.0198
2023-05-12T12:25:19.822Z,59.1719
2023-05-12T12:26:21.176Z,57.5654